Time;durP1;ratioP1;P1;durP2;ratioP2;P2;SDS_P1;SDS_P2;PMS_P1;PMS_P2;Temp;Humidity;BMP_temperature;BMP_pressure;BME280_temperature;BME280_humidity;BME280_pressure;Samples;Min_cycle;Max_cycle;Signal;HPM_P1;HPM_P2
2021/10/15 00:01:25;;;;;;;27.20;16.70;;;;;;;2.08;78.19;100270.29;116652;1200;22378;-64
2021/10/15 00:03:54;;;;;;;27.50;16.00;;;;;;;2.08;78.20;100265.48;116515;1200;138782;-64
2021/10/15 00:06:22;;;;;;;29.90;17.00;;;;;;;2.08;78.31;100261.73;116619;1199;22313;-64
2021/10/15 00:08:50;;;;;;;32.00;16.30;;;;;;;2.12;78.45;100263.41;116629;1200;23210;-64
2021/10/15 00:11:18;;;;;;;29.00;18.00;;;;;;;2.12;78.41;100262.48;116558;1199;138703;-64
2021/10/15 00:13:46;;;;;;;30.90;17.60;;;;;;;2.12;78.34;100263.60;116645;1200;23295;-64
2021/10/15 00:16:14;;;;;;;30.70;18.40;;;;;;;2.13;78.48;100264.26;116574;1200;138896;-64
2021/10/15 00:18:42;;;;;;;29.70;18.20;;;;;;;2.14;78.54;100258.68;116666;1199;22281;-64
2021/10/15 00:21:10;;;;;;;29.70;17.80;;;;;;;2.13;78.43;100257.51;116482;1193;138078;-64
2021/10/15 00:23:38;;;;;;;31.20;18.70;;;;;;;2.12;77.99;100255.84;116672;1187;23565;-64
2021/10/15 00:26:07;;;;;;;34.60;18.70;;;;;;;2.10;77.61;100253.16;116663;1199;22945;-64
2021/10/15 00:28:35;;;;;;;37.70;20.00;;;;;;;2.08;77.48;100250.43;116487;1200;138012;-64
2021/10/15 00:31:04;;;;;;;46.60;25.30;;;;;;;2.06;77.61;100242.26;116670;1201;22787;-65
2021/10/15 00:33:33;;;;;;;48.90;23.80;;;;;;;2.06;77.64;100242.83;116541;1193;138421;-65
2021/10/15 00:36:01;;;;;;;50.70;23.70;;;;;;;2.05;77.59;100244.92;116634;1200;22370;-65
2021/10/15 00:38:29;;;;;;;52.80;27.00;;;;;;;2.03;77.55;100244.57;116610;1200;22251;-66
2021/10/15 00:40:57;;;;;;;52.00;24.80;;;;;;;2.01;77.47;100250.23;116513;1199;138068;-65
2021/10/15 00:43:25;;;;;;;49.90;24.60;;;;;;;1.98;77.44;100250.39;116649;1199;22307;-65
2021/10/15 00:45:53;;;;;;;47.30;23.30;;;;;;;1.97;77.48;100250.40;116541;1200;139116;-64
2021/10/15 00:48:21;;;;;;;44.60;22.80;;;;;;;1.93;77.30;100249.89;116427;1201;22809;-63
2021/10/15 00:50:50;;;;;;;48.90;25.70;;;;;;;1.88;77.19;100247.83;116490;1194;22327;-64
2021/10/15 00:53:18;;;;;;;48.00;27.00;;;;;;;1.88;77.49;100247.16;116517;1200;138414;-63
2021/10/15 00:55:45;;;;;;;62.70;39.50;;;;;;;1.87;77.77;100247.95;116285;1200;22331;-70
2021/10/15 00:58:13;;;;;;;63.30;40.50;;;;;;;1.87;77.94;100247.20;116422;1187;139764;-70
2021/10/15 01:00:42;;;;;;;63.30;36.80;;;;;;;1.89;78.26;100244.28;116699;1200;22295;-70
2021/10/15 01:03:10;;;;;;;62.20;40.00;;;;;;;1.90;78.15;100244.91;116398;1201;137936;-69
2021/10/15 01:05:39;;;;;;;61.70;37.30;;;;;;;1.90;78.46;100243.43;116611;1200;22278;-70
2021/10/15 01:08:07;;;;;;;55.60;32.00;;;;;;;1.92;78.48;100241.64;116694;1200;22307;-70
2021/10/15 01:10:35;;;;;;;57.00;31.10;;;;;;;1.93;78.62;100241.61;116506;1199;138138;-70
2021/10/15 01:13:03;;;;;;;54.40;33.00;;;;;;;1.93;78.26;100237.15;116575;1199;23879;-70
2021/10/15 01:15:47;;;;;;;46.30;30.00;;;;;;;1.92;78.05;100242.21;116557;1200;138392;-69
2021/10/15 01:18:15;;;;;;;48.70;26.80;;;;;;;1.90;77.91;100242.02;116695;1196;22366;-70
2021/10/15 01:20:47;;;;;;;45.40;26.80;;;;;;;1.90;77.91;100241.36;116725;1200;22401;-70
2021/10/15 01:23:15;;;;;;;39.40;23.80;;;;;;;1.89;77.63;100246.10;116562;1200;138280;-70
2021/10/15 01:25:45;;;;;;;37.20;22.80;;;;;;;1.89;77.91;100242.54;116692;1199;22231;-70
2021/10/15 01:28:13;;;;;;;36.80;21.90;;;;;;;1.90;78.06;100245.31;116506;1200;137950;-70
2021/10/15 01:30:42;;;;;;;32.60;19.70;;;;;;;1.90;78.26;100239.87;116666;1200;22323;-70
2021/10/15 01:33:10;;;;;;;35.60;21.20;;;;;;;1.90;78.11;100238.43;116557;1200;138583;-69
2021/10/15 01:35:38;;;;;;;32.70;20.20;;;;;;;1.89;77.98;100233.60;116660;1200;22385;-70
2021/10/15 01:38:06;;;;;;;34.50;20.10;;;;;;;1.85;77.69;100230.17;116706;1200;22318;-70
2021/10/15 01:40:37;;;;;;;35.50;20.70;;;;;;;1.83;77.62;100232.21;116579;1200;139044;-70
2021/10/15 01:43:05;;;;;;;31.70;19.60;;;;;;;1.81;77.49;100230.48;116693;1199;22263;-70
2021/10/15 01:45:33;;;;;;;32.80;19.60;;;;;;;1.76;77.28;100229.34;116553;1200;138607;-70
2021/10/15 01:48:01;;;;;;;34.00;20.00;;;;;;;1.72;77.28;100229.16;116669;1200;22324;-69
2021/10/15 01:50:29;;;;;;;34.00;19.00;;;;;;;1.68;77.13;100238.57;116653;1199;22350;-69
2021/10/15 01:52:57;;;;;;;30.20;18.80;;;;;;;1.64;76.89;100235.92;116546;1200;138978;-69
2021/10/15 01:55:25;;;;;;;28.20;18.50;;;;;;;1.58;76.86;100238.70;116638;1199;22274;-69
2021/10/15 01:57:53;;;;;;;35.90;19.70;;;;;;;1.54;76.85;100240.68;116552;1199;138751;-69
2021/10/15 02:00:21;;;;;;;28.00;18.40;;;;;;;1.49;76.87;100241.23;116709;1200;22436;-69
2021/10/15 02:02:51;;;;;;;33.80;18.40;;;;;;;1.45;76.96;100240.00;116617;1200;22430;-69
2021/10/15 02:05:19;;;;;;;33.60;20.30;;;;;;;1.41;77.05;100237.42;116616;1198;138280;-69
2021/10/15 02:07:47;;;;;;;31.60;19.70;;;;;;;1.39;77.05;100244.81;116700;1199;23442;-70
2021/10/15 02:10:18;;;;;;;29.80;18.60;;;;;;;1.38;77.22;100248.48;116510;1200;138398;-70
2021/10/15 02:12:50;;;;;;;31.80;20.10;;;;;;;1.39;77.41;100248.75;116714;1193;23087;-70
2021/10/15 02:15:30;;;;;;;30.70;19.10;;;;;;;1.40;77.70;100242.99;116589;1199;141858;-70
2021/10/15 02:17:59;;;;;;;30.10;17.70;;;;;;;1.42;77.96;100241.58;116690;1192;22294;-70
2021/10/15 02:20:27;;;;;;;30.40;19.00;;;;;;;1.44;78.06;100243.67;116676;1200;22335;-70
2021/10/15 02:22:55;;;;;;;31.10;18.20;;;;;;;1.41;77.88;100244.83;116515;1200;138124;-70
2021/10/15 02:25:24;;;;;;;28.50;17.80;;;;;;;1.40;77.85;100241.12;116667;1200;22231;-70
2021/10/15 02:27:52;;;;;;;29.60;17.30;;;;;;;1.39;77.80;100246.93;116595;1200;139058;-70
2021/10/15 02:30:20;;;;;;;31.60;18.60;;;;;;;1.37;77.84;100250.16;116620;1200;22328;-70
2021/10/15 02:32:49;;;;;;;41.70;19.30;;;;;;;1.37;78.15;100250.30;116629;1199;22295;-70
2021/10/15 02:35:17;;;;;;;39.40;20.70;;;;;;;1.37;78.37;100243.39;116600;1200;137816;-70
2021/10/15 02:37:45;;;;;;;37.60;21.60;;;;;;;1.35;78.46;100241.58;116671;1200;22335;-70
2021/10/15 02:40:14;;;;;;;40.70;21.30;;;;;;;1.35;78.54;100239.51;116535;1185;138734;-70
2021/10/15 02:42:42;;;;;;;37.30;21.10;;;;;;;1.33;78.62;100234.52;116570;1201;23063;-70
2021/10/15 02:45:10;;;;;;;35.60;20.30;;;;;;;1.30;78.58;100235.29;116476;1199;139398;-69
2021/10/15 02:47:38;;;;;;;37.50;20.10;;;;;;;1.27;78.33;100235.50;116663;1199;22389;-70
2021/10/15 02:50:06;;;;;;;36.70;19.90;;;;;;;1.22;78.25;100236.52;116641;1200;22337;-70
2021/10/15 02:52:35;;;;;;;43.90;21.80;;;;;;;1.17;77.98;100233.22;116517;1200;137925;-70
2021/10/15 02:55:03;;;;;;;40.30;21.40;;;;;;;1.12;78.19;100239.37;116628;1201;22284;-70
2021/10/15 02:57:33;;;;;;;43.50;22.40;;;;;;;1.07;78.01;100242.58;116533;1200;138558;-70
2021/10/15 03:00:01;;;;;;;36.40;20.00;;;;;;;1.03;77.87;100236.27;116563;1200;22321;-69
2021/10/15 03:02:30;;;;;;;48.40;23.30;;;;;;;1.01;77.58;100237.23;116619;1201;23119;-70
2021/10/15 03:04:58;;;;;;;51.30;24.50;;;;;;;1.00;77.88;100236.30;116519;1200;139233;-70
2021/10/15 03:08:41;;;;;;;48.90;24.70;;;;;;;0.99;77.84;100230.52;110842;1206;558110;-70
2021/10/15 03:11:07;;;;;;;43.10;21.90;;;;;;;1.00;78.16;100237.30;111931;1199;137343;-71
2021/10/15 03:13:34;;;;;;;;;;;;;;;1.03;78.35;100236.33;112392;1202;22427;-71
2021/10/15 03:16:09;;;;;;;43.20;21.50;;;;;;;1.04;78.78;100237.05;112228;1197;125562;-70
2021/10/15 03:18:36;;;;;;;41.40;22.20;;;;;;;1.06;78.90;100233.96;116418;1203;23188;-71
2021/10/15 03:21:04;;;;;;;39.60;22.70;;;;;;;1.08;79.18;100230.37;116582;1201;22449;-70
2021/10/15 03:23:31;;;;;;;38.20;22.70;;;;;;;1.11;79.52;100234.65;116513;1202;137808;-71
2021/10/15 03:25:58;;;;;;;38.30;20.90;;;;;;;1.14;79.58;100233.59;116566;1202;22420;-70
2021/10/15 03:28:24;;;;;;;39.80;21.60;;;;;;;1.17;79.75;100238.84;116573;1197;138712;-71
2021/10/15 03:30:51;;;;;;;39.50;21.80;;;;;;;1.17;79.56;100236.42;116525;1201;23053;-71
2021/10/15 03:33:18;;;;;;;;;;;;;;;1.17;79.26;100232.54;116369;1202;138006;-70
2021/10/15 03:35:45;;;;;;;33.00;18.90;;;;;;;1.16;79.24;100228.89;116291;1204;22695;-71
2021/10/15 03:38:11;;;;;;;35.50;19.50;;;;;;;1.13;79.05;100230.52;116586;1201;23158;-71
2021/10/15 03:40:39;;;;;;;37.80;20.80;;;;;;;1.13;79.02;100233.77;116459;1202;137838;-70
2021/10/15 03:43:06;;;;;;;37.10;21.40;;;;;;;1.14;79.20;100236.02;116668;1201;22322;-71
2021/10/15 03:45:33;;;;;;;;;;;;;;;1.15;79.19;100232.61;116511;1200;138709;-71
2021/10/15 03:47:59;;;;;;;30.70;19.20;;;;;;;1.13;78.87;100231.91;116605;1201;22721;-70
2021/10/15 03:50:26;;;;;;;35.10;19.90;;;;;;;1.11;79.15;100233.10;116734;1200;22394;-71
2021/10/15 03:52:53;;;;;;;;;;;;;;;1.09;79.26;100241.73;116509;1201;138646;-71
2021/10/15 03:55:19;;;;;;;40.60;20.70;;;;;;;1.09;79.49;100232.77;116804;1200;23103;-70
2021/10/15 03:57:46;;;;;;;;;;;;;;;1.06;79.32;100238.80;116569;1200;139201;-70
2021/10/15 04:00:13;;;;;;;37.10;18.20;;;;;;;1.05;79.42;100238.60;116596;1201;23581;-70
2021/10/15 04:02:42;;;;;;;37.60;20.70;;;;;;;1.03;79.59;100232.14;116793;1200;22327;-70
2021/10/15 04:05:09;;;;;;;40.20;23.30;;;;;;;1.03;79.83;100229.63;116627;1198;137651;-70
2021/10/15 04:07:36;;;;;;;36.50;21.10;;;;;;;1.06;79.88;100239.70;116759;1200;22328;-70
2021/10/15 04:10:03;;;;;;;;;;;;;;;1.10;80.30;100244.67;116755;1200;137770;-70
2021/10/15 04:12:30;;;;;;;31.30;19.30;;;;;;;1.14;80.45;100243.95;116792;1200;22378;-70
2021/10/15 04:14:57;;;;;;;40.10;22.80;;;;;;;1.18;80.55;100237.02;116799;1200;22376;-70
2021/10/15 04:17:23;;;;;;;41.10;21.90;;;;;;;1.22;80.74;100237.61;116684;1200;137689;-70
2021/10/15 04:19:50;;;;;;;39.00;23.00;;;;;;;1.26;80.67;100238.11;116698;1197;23318;-69
2021/10/15 04:22:17;;;;;;;;;;;;;;;1.29;81.07;100241.95;116646;1201;137476;-69
2021/10/15 04:24:44;;;;;;;35.10;22.40;;;;;;;1.34;81.24;100248.53;116721;1201;22346;-69
2021/10/15 04:27:10;;;;;;;36.10;21.00;;;;;;;1.39;81.49;100247.98;116588;1200;137533;-69
2021/10/15 04:29:37;;;;;;;38.30;21.70;;;;;;;1.46;81.49;100248.80;116716;1200;22346;-67
2021/10/15 04:32:04;;;;;;;35.40;22.80;;;;;;;1.48;81.42;100244.63;116636;1201;23306;-67
2021/10/15 04:34:31;;;;;;;38.50;21.70;;;;;;;1.55;81.47;100250.59;116601;1201;138025;-69
2021/10/15 04:36:58;;;;;;;38.80;22.40;;;;;;;1.60;81.73;100249.98;116713;1201;22268;-68
2021/10/15 04:39:25;;;;;;;38.40;22.80;;;;;;;1.65;81.74;100246.08;116564;1201;137628;-69
2021/10/15 04:41:52;;;;;;;45.30;25.20;;;;;;;1.71;81.93;100244.45;116664;1201;23479;-68
2021/10/15 04:44:18;;;;;;;43.80;24.80;;;;;;;1.78;81.96;100238.25;116660;1201;22358;-69
2021/10/15 04:46:45;;;;;;;41.20;24.10;;;;;;;1.86;82.32;100241.15;116529;1196;137385;-69
2021/10/15 04:49:12;;;;;;;45.10;25.60;;;;;;;1.92;82.34;100239.79;116709;1200;23074;-69
2021/10/15 04:51:39;;;;;;;38.90;24.40;;;;;;;1.99;82.51;100247.55;116599;1201;139300;-68
2021/10/15 04:54:06;;;;;;;42.80;25.00;;;;;;;2.07;82.47;100252.56;116678;1200;23123;-69
2021/10/15 04:56:33;;;;;;;48.90;24.60;;;;;;;2.13;82.67;100255.03;116708;1200;22412;-68
2021/10/15 04:59:00;;;;;;;50.30;27.70;;;;;;;2.21;82.35;100257.64;116601;1200;137532;-69
2021/10/15 05:01:29;;;;;;;46.50;27.50;;;;;;;2.28;82.41;100257.20;116720;1200;23155;-69
2021/10/15 05:03:56;;;;;;;51.20;27.80;;;;;;;2.32;82.43;100256.40;116681;1201;138503;-69
2021/10/15 05:06:23;;;;;;;57.60;29.10;;;;;;;2.37;82.29;100254.60;114507;1201;22629;-68
2021/10/15 05:09:13;;;;;;;51.50;27.40;;;;;;;2.39;82.14;100255.70;116698;1201;22365;-68
2021/10/15 05:11:48;;;;;;;50.50;26.80;;;;;;;2.42;82.23;100255.75;116668;1200;137266;-68
2021/10/15 05:14:15;;;;;;;49.40;26.70;;;;;;;2.45;81.96;100257.05;116711;1200;22243;-67
2021/10/15 05:16:46;;;;;;;43.90;26.60;;;;;;;2.49;82.30;100258.50;116461;1202;137990;-69
2021/10/15 05:19:13;;;;;;;50.80;28.10;;;;;;;2.54;82.11;100259.77;116776;1201;22277;-68
2021/10/15 05:21:40;;;;;;;;;;;;;;;2.59;82.21;100261.99;116531;1201;137645;-68
2021/10/15 05:24:06;;;;;;;49.10;27.10;;;;;;;2.64;82.35;100262.98;116729;1200;22239;-68
2021/10/15 05:26:33;;;;;;;51.50;28.20;;;;;;;2.69;82.34;100265.39;116729;1201;22319;-66
2021/10/15 05:29:00;;;;;;;47.70;28.80;;;;;;;2.72;82.21;100265.47;116571;1193;138716;-67
2021/10/15 05:31:26;;;;;;;;;;;;;;;2.78;82.14;100265.85;116718;1201;22840;-68
2021/10/15 05:33:53;;;;;;;53.00;28.20;;;;;;;2.80;82.15;100266.05;116628;1201;123729;-68
2021/10/15 05:36:20;;;;;;;50.70;29.30;;;;;;;2.83;82.27;100267.70;116710;1200;22273;-66
2021/10/15 05:38:47;;;;;;;52.00;28.80;;;;;;;2.85;82.33;100264.59;116745;1201;23124;-67
2021/10/15 05:41:14;;;;;;;47.70;27.70;;;;;;;2.91;82.29;100274.48;116508;1201;137589;-67
2021/10/15 05:43:40;;;;;;;48.70;28.20;;;;;;;2.94;82.42;100273.66;116655;1201;22447;-67
2021/10/15 05:46:07;;;;;;;49.80;29.20;;;;;;;2.99;82.13;100274.73;116574;1200;137600;-67
2021/10/15 05:48:34;;;;;;;;;;;;;;;3.03;82.43;100275.21;116684;1201;22422;-66
2021/10/15 05:51:01;;;;;;;48.40;28.50;;;;;;;3.08;82.30;100273.40;116931;1199;22377;-67
2021/10/15 05:53:28;;;;;;;;;;;;;;;3.12;82.44;100271.30;116918;1198;139484;-69
2021/10/15 06:01:07;;;;;;;55.10;32.90;;;;;;;3.24;82.31;100281.84;117024;1198;22403;-68
2021/10/15 06:03:34;;;;;;;46.00;28.50;;;;;;;3.26;82.13;100279.39;116874;1192;138587;-69
2021/10/15 06:14:20;;;;;;;42.70;25.60;;;;;;;3.31;81.84;100273.20;117007;1198;22220;-68
2021/10/15 06:17:01;;;;;;;50.20;28.40;;;;;;;3.34;82.20;100272.99;116914;1198;138932;-68
2021/10/15 06:19:29;;;;;;;47.80;25.60;;;;;;;3.40;82.42;100269.30;116996;1197;22344;-67
2021/10/15 06:21:55;;;;;;;50.50;28.10;;;;;;;3.49;82.52;100269.86;116853;1191;138088;-67
2021/10/15 06:24:22;;;;;;;48.40;29.40;;;;;;;3.60;83.02;100270.09;117081;1198;22351;-67
2021/10/15 06:26:49;;;;;;;46.30;27.60;;;;;;;3.71;83.35;100268.30;116971;1198;22381;-66
2021/10/15 06:29:15;;;;;;;45.80;25.90;;;;;;;3.83;83.54;100273.30;116907;1198;138034;-68
2021/10/15 06:31:42;;;;;;;42.50;25.40;;;;;;;3.96;83.50;100272.47;116988;1198;22203;-68
2021/10/15 06:34:09;;;;;;;44.10;25.80;;;;;;;4.09;83.79;100272.35;116863;1198;140156;-68
2021/10/15 06:36:36;;;;;;;;;;;;;;;4.23;83.66;100274.14;117037;1198;22391;-66
2021/10/15 06:39:02;;;;;;;38.30;23.40;;;;;;;4.36;83.67;100272.61;116998;1198;22325;-66
2021/10/15 06:41:32;;;;;;;40.70;24.70;;;;;;;4.48;83.50;100272.86;116839;1198;138045;-66
2021/10/15 06:43:59;;;;;;;40.50;24.70;;;;;;;4.61;83.29;100270.77;117046;1198;22452;-64
2021/10/15 06:46:25;;;;;;;;;;;;;;;4.73;82.97;100267.75;116940;1198;138571;-64
2021/10/15 06:48:52;;;;;;;32.20;21.00;;;;;;;4.85;82.91;100268.71;117008;1198;22412;-66
2021/10/15 06:51:19;;;;;;;42.90;25.70;;;;;;;4.96;82.68;100267.12;117051;1198;22227;-65
2021/10/15 06:53:46;;;;;;;41.40;24.40;;;;;;;5.07;82.39;100260.46;116891;1198;138183;-65
2021/10/15 06:56:13;;;;;;;37.70;24.80;;;;;;;5.21;82.31;100264.06;117007;1198;22305;-65
2021/10/15 06:58:41;;;;;;;47.40;23.20;;;;;;;5.33;82.13;100262.88;116938;1198;138096;-65
2021/10/15 07:01:07;;;;;;;36.70;22.20;;;;;;;5.47;81.61;100260.70;116975;1198;22140;-66
2021/10/15 07:03:34;;;;;;;;;;;;;;;5.59;81.36;100261.61;116870;1198;138970;-65
2021/10/15 07:06:01;;;;;;;35.70;22.90;;;;;;;5.69;81.04;100261.61;117061;1198;23159;-62
2021/10/15 07:08:28;;;;;;;40.00;23.10;;;;;;;5.81;80.91;100263.94;116961;1198;22206;-61
2021/10/15 07:10:55;;;;;;;34.70;22.20;;;;;;;5.93;80.43;100259.09;116888;1193;138602;-62
2021/10/15 07:13:21;;;;;;;33.80;21.20;;;;;;;6.05;80.17;100256.63;117018;1198;23169;-61
2021/10/15 07:15:49;;;;;;;36.80;23.00;;;;;;;6.17;79.90;100252.36;116812;1199;140264;-62
2021/10/15 07:18:16;;;;;;;40.50;22.90;;;;;;;6.30;79.41;100251.50;116939;1193;22307;-61
2021/10/15 07:20:44;;;;;;;35.60;22.30;;;;;;;6.42;79.20;100251.63;117099;1198;22321;-61
2021/10/15 07:23:11;;;;;;;38.70;22.20;;;;;;;6.54;78.84;100252.74;116882;1198;139019;-61
2021/10/15 07:25:38;;;;;;;30.80;20.90;;;;;;;6.67;78.49;100249.41;117053;1198;22330;-61
2021/10/15 07:28:06;;;;;;;36.80;22.40;;;;;;;6.81;78.02;100256.05;116945;1198;138374;-62
2021/10/15 07:30:38;;;;;;;35.00;21.20;;;;;;;6.94;78.01;100254.78;116977;1198;22327;-61
2021/10/15 07:33:05;;;;;;;34.20;20.40;;;;;;;7.05;77.33;100255.36;117010;1198;23849;-61
2021/10/15 07:35:32;;;;;;;30.20;18.10;;;;;;;7.17;76.93;100255.58;116998;1198;139087;-61
2021/10/15 07:37:59;;;;;;;30.60;19.50;;;;;;;7.29;76.41;100251.11;116968;1198;22311;-62
2021/10/15 07:40:25;;;;;;;34.30;19.80;;;;;;;7.41;75.93;100248.44;116930;1198;138807;-61
2021/10/15 07:42:52;;;;;;;;;;;;;;;7.53;75.53;100243.69;117070;1198;23288;-62
2021/10/15 07:45:19;;;;;;;26.80;16.90;;;;;;;7.64;74.87;100237.37;116993;1198;22394;-62
2021/10/15 07:47:59;;;;;;;26.40;17.00;;;;;;;7.80;74.37;100238.91;116898;1198;138369;-61
2021/10/15 07:50:26;;;;;;;;;;;;;;;7.92;73.72;100237.30;117064;1198;22312;-61
2021/10/15 07:52:54;;;;;;;24.70;15.20;;;;;;;8.05;73.27;100236.55;116885;1198;124182;-62
2021/10/15 07:55:20;;;;;;;27.70;16.40;;;;;;;8.16;72.50;100230.39;117026;1198;23398;-62
2021/10/15 07:57:47;;;;;;;23.70;16.20;;;;;;;8.28;71.73;100232.73;116843;1198;139331;-63
2021/10/15 08:00:14;;;;;;;;;;;;;;;8.40;71.55;100235.29;116989;1198;23148;-62
2021/10/15 08:02:40;;;;;;;20.50;14.90;;;;;;;8.50;70.96;100233.08;117062;1198;22264;-62
2021/10/15 08:05:12;;;;;;;22.00;14.80;;;;;;;8.60;70.44;100230.49;116930;1198;138474;-63
2021/10/15 08:07:40;;;;;;;22.00;16.00;;;;;;;8.73;70.09;100227.86;117021;1198;24972;-62
2021/10/15 08:10:17;;;;;;;25.60;14.60;;;;;;;8.85;69.55;100232.38;116933;1198;138632;-62
2021/10/15 08:12:44;;;;;;;20.70;13.60;;;;;;;8.96;68.70;100229.37;117029;1198;23468;-62
2021/10/15 08:15:11;;;;;;;;;;;;;;;9.05;68.26;100231.20;116985;1193;24054;-62
2021/10/15 08:17:43;;;;;;;25.40;13.30;;;;;;;9.15;67.67;100228.09;116920;1198;125903;-62
2021/10/15 08:20:10;;;;;;;20.90;13.10;;;;;;;9.24;66.93;100227.95;116953;1198;23368;-62
2021/10/15 08:22:37;;;;;;;21.30;13.70;;;;;;;9.32;66.23;100221.27;116850;1198;139195;-62
2021/10/15 08:25:23;;;;;;;23.60;12.10;;;;;;;9.40;65.62;100220.20;117056;1198;22164;-64
2021/10/15 08:27:50;;;;;;;20.50;13.70;;;;;;;9.47;65.33;100216.47;116915;1198;140370;-63
2021/10/15 08:30:16;;;;;;;20.80;13.10;;;;;;;9.54;65.22;100216.92;117012;1198;23043;-62
2021/10/15 08:32:44;;;;;;;20.70;12.90;;;;;;;9.62;64.82;100214.93;117080;1198;22312;-63
2021/10/15 08:35:11;;;;;;;;;;;;;;;9.68;64.69;100216.33;116956;1198;138082;-63
2021/10/15 08:37:38;;;;;;;14.10;10.50;;;;;;;9.75;64.32;100211.02;116995;1198;22350;-63
2021/10/15 08:40:06;;;;;;;22.00;12.40;;;;;;;9.83;63.98;100209.77;116954;1198;139158;-63
2021/10/15 08:42:33;;;;;;;21.50;11.40;;;;;;;9.91;63.91;100203.83;117040;1193;22132;-63
2021/10/15 08:45:00;;;;;;;21.00;11.10;;;;;;;9.96;63.83;100197.56;116952;1198;22331;-62
2021/10/15 08:47:26;;;;;;;16.80;11.10;;;;;;;10.05;63.26;100195.23;116679;1199;138182;-62
2021/10/15 08:50:13;;;;;;;15.60;11.40;;;;;;;10.15;62.04;100194.46;116950;1199;22318;-62
2021/10/15 08:52:40;;;;;;;19.40;12.00;;;;;;;10.23;61.67;100194.12;116891;1198;138792;-62
2021/10/15 08:55:07;;;;;;;;;;;;;;;10.32;61.26;100193.87;117012;1198;22419;-63
2021/10/15 08:57:34;;;;;;;17.60;11.10;;;;;;;10.39;61.06;100196.42;116904;1199;22230;-62
2021/10/15 09:00:19;;;;;;;;;;;;;;;10.45;60.88;100191.47;116645;1199;137857;-62
2021/10/15 09:02:46;;;;;;;14.30;9.80;;;;;;;10.50;60.29;100194.21;117044;1196;22306;-62
2021/10/15 09:05:13;;;;;;;14.50;10.30;;;;;;;10.56;59.91;100189.04;116568;1199;137958;-63
2021/10/15 09:07:51;;;;;;;19.30;12.00;;;;;;;10.62;59.90;100183.73;117020;1198;22374;-62
2021/10/15 09:10:19;;;;;;;17.30;10.80;;;;;;;10.69;59.63;100186.02;116914;1198;139028;-63
2021/10/15 09:12:56;;;;;;;21.00;10.00;;;;;;;10.76;59.11;100186.54;117011;1194;22389;-63
2021/10/15 09:15:33;;;;;;;14.40;8.60;;;;;;;10.82;58.18;100184.59;117013;1198;22368;-62
2021/10/15 09:18:11;;;;;;;14.20;9.40;;;;;;;10.88;57.55;100181.81;116913;1198;138552;-62
2021/10/15 09:20:38;;;;;;;14.20;9.00;;;;;;;10.90;57.34;100179.63;117046;1198;23421;-62
2021/10/15 09:23:10;;;;;;;15.30;9.40;;;;;;;10.95;57.14;100181.31;116576;1200;137987;-63
2021/10/15 09:25:42;;;;;;;15.10;9.30;;;;;;;11.00;56.71;100184.23;117057;1198;22423;-62
2021/10/15 09:28:26;;;;;;;13.30;9.00;;;;;;;11.05;56.81;100180.44;116915;1196;137954;-62
2021/10/15 09:30:53;;;;;;;23.40;9.60;;;;;;;11.10;56.44;100184.25;117256;1195;22354;-62
2021/10/15 09:33:20;;;;;;;20.90;9.90;;;;;;;11.14;55.87;100182.13;117086;1198;22399;-62
2021/10/15 09:35:49;;;;;;;16.90;10.30;;;;;;;11.19;55.67;100179.60;117203;1196;138344;-63
2021/10/15 09:38:16;;;;;;;12.50;8.80;;;;;;;11.23;56.32;100179.52;116992;1197;22383;-62
2021/10/15 09:40:45;;;;;;;13.00;9.10;;;;;;;11.27;55.61;100173.95;116903;1196;138414;-61
2021/10/15 09:43:13;;;;;;;17.40;9.20;;;;;;;11.31;55.46;100166.84;117034;1198;22795;-62
2021/10/15 09:45:41;;;;;;;22.00;9.60;;;;;;;11.35;55.23;100164.95;117228;1190;22292;-62
2021/10/15 09:48:27;;;;;;;13.60;9.20;;;;;;;11.38;55.57;100165.16;117269;1196;137057;-62
2021/10/15 09:51:20;;;;;;;12.80;8.80;;;;;;;11.44;55.20;100155.97;117344;1196;23027;-62
2021/10/15 09:54:14;;;;;;;14.70;9.20;;;;;;;11.49;54.71;100151.80;117159;1196;137376;-62
2021/10/15 09:56:54;;;;;;;18.30;10.50;;;;;;;11.54;54.06;100149.14;117218;1196;22324;-62
2021/10/15 09:59:21;;;;;;;17.90;9.10;;;;;;;11.56;53.71;100145.17;117159;1196;138242;-61
2021/10/15 10:01:49;;;;;;;17.10;9.00;;;;;;;11.59;53.64;100143.98;117309;1196;22351;-62
2021/10/15 10:04:16;;;;;;;14.40;6.30;;;;;;;11.63;53.34;100141.59;117116;1196;137466;-62
2021/10/15 10:06:43;;;;;;;11.90;6.90;;;;;;;11.68;52.96;100138.28;117342;1196;22324;-62
2021/10/15 10:09:10;;;;;;;;;;;;;;;11.73;52.35;100133.98;117165;1196;22343;-61
2021/10/15 10:11:36;;;;;;;10.90;6.50;;;;;;;11.78;52.30;100131.47;117156;1194;124183;-62
2021/10/15 10:14:28;;;;;;;13.60;7.50;;;;;;;11.83;51.95;100124.66;117051;1197;22988;-62
2021/10/15 10:16:55;;;;;;;14.90;7.60;;;;;;;11.84;51.35;100117.61;117166;1196;138260;-61
2021/10/15 10:19:23;;;;;;;;;;;;;;;11.84;51.51;100117.14;117050;1196;22376;-63
2021/10/15 10:21:54;;;;;;;11.30;6.30;;;;;;;11.89;51.52;100117.81;117197;1196;124726;-62
2021/10/15 10:24:25;;;;;;;11.60;7.30;;;;;;;11.94;51.47;100118.05;116975;1198;22420;-62
2021/10/15 10:26:53;;;;;;;11.90;6.90;;;;;;;11.99;50.96;100113.14;117037;1196;22396;-62
2021/10/15 10:29:19;;;;;;;17.10;8.70;;;;;;;12.02;50.91;100112.42;117146;1196;138437;-62
2021/10/15 10:31:46;;;;;;;12.50;7.90;;;;;;;12.06;50.98;100109.85;117249;1196;22335;-63
2021/10/15 10:34:21;;;;;;;14.40;7.10;;;;;;;12.09;50.96;100105.91;117039;1196;137491;-63
2021/10/15 10:37:06;;;;;;;20.30;8.20;;;;;;;12.11;50.92;100105.00;117291;1196;23407;-62
2021/10/15 10:40:07;;;;;;;15.90;7.60;;;;;;;12.15;50.78;100104.16;117191;1196;137931;-62
2021/10/15 10:42:34;;;;;;;17.50;7.30;;;;;;;12.17;50.73;100094.97;117300;1184;22409;-63
2021/10/15 10:45:01;;;;;;;;;;;;;;;12.19;50.43;100099.09;116983;1196;23247;-62
2021/10/15 10:47:28;;;;;;;12.40;6.20;;;;;;;12.20;50.25;100098.29;117220;1196;123634;-63
2021/10/15 10:50:08;;;;;;;12.60;6.60;;;;;;;12.20;50.43;100094.23;117295;1196;22383;-62
2021/10/15 10:52:57;;;;;;;13.50;8.20;;;;;;;12.21;50.22;100097.05;117179;1196;137320;-62
2021/10/15 10:55:41;;;;;;;12.10;7.30;;;;;;;12.25;50.35;100091.79;117309;1196;23587;-62
2021/10/15 10:58:29;;;;;;;20.00;7.60;;;;;;;12.28;50.17;100090.83;117144;1196;137951;-63
2021/10/15 11:01:18;;;;;;;14.80;7.50;;;;;;;12.31;50.01;100088.46;117303;1191;22357;-63
2021/10/15 11:03:46;;;;;;;15.50;8.30;;;;;;;12.36;49.93;100085.36;117351;1196;24927;-62
2021/10/15 11:06:13;;;;;;;13.40;7.00;;;;;;;12.39;49.78;100083.11;117248;1196;137096;-62
2021/10/15 11:08:42;;;;;;;12.90;6.40;;;;;;;12.43;49.26;100085.09;117236;1196;22362;-62
2021/10/15 11:11:22;;;;;;;17.30;6.20;;;;;;;12.43;48.86;100083.02;117196;1196;137795;-62
2021/10/15 11:13:49;;;;;;;8.40;5.90;;;;;;;12.46;48.58;100080.66;117242;1190;22240;-62
2021/10/15 11:16:26;;;;;;;8.30;5.60;;;;;;;12.49;48.60;100076.05;117077;1196;137290;-62
2021/10/15 11:18:53;;;;;;;15.80;7.30;;;;;;;12.51;48.18;100075.15;116982;1197;22360;-63
2021/10/15 11:21:21;;;;;;;16.70;7.90;;;;;;;12.51;47.88;100077.16;117317;1196;22144;-62
2021/10/15 11:23:48;;;;;;;10.40;5.50;;;;;;;12.52;47.76;100077.72;117213;1196;137369;-62
2021/10/15 11:26:15;;;;;;;10.40;5.80;;;;;;;12.51;47.79;100069.18;117386;1196;23542;-62
2021/10/15 11:28:43;;;;;;;12.10;5.60;;;;;;;12.53;47.84;100067.63;117121;1196;139229;-62
2021/10/15 11:31:12;;;;;;;10.10;5.70;;;;;;;12.55;47.73;100063.54;117219;1196;23014;-62
2021/10/15 11:33:39;;;;;;;12.10;6.40;;;;;;;12.57;48.05;100052.17;117359;1196;22250;-62
2021/10/15 11:36:07;;;;;;;9.40;6.20;;;;;;;12.58;47.74;100052.24;117238;1196;138268;-62